»·PEaware :: SWA1783 KSFO-KBUR

SWA1783 :: KSFO-KBUR

FLIGHT INFORMATION

Flight Status: Arrived
Operator:
Southwest Airlines
More flights by this operator :: More flights under this callsign
Pilot: Ben F. (2808)
Aircraft: BOEING 737-300
(B733)
More flights by this aircraft type
Origin: KSFO San Francisco Intl
United States
Destination: KBUR Bob Hope-Burbank
United States
More flights between these airports :: More routes between these airports
Route: +WESLA3 CISKO RDHOT ROKKR2
File this flight plan on PilotEdge
Remarks:
Altitude:
(Current/Filed)
31,000ft
Speed:
(Current/Filed)
442kts
Departed: 11-May-18 05:11 PM
Arrived: 11-May-18 06:00 PM
Distance/Time
Traveled:
283nm/0:49
Distance/Time
To Go:
Arrived

Flight Plot

Page will automatically refresh every two minutes.

Flight plan parsing failed; only flown route is shown


Map Options




Map Legend


Flown Route
Filed Route
Departure Airport
Arrival Airport
Navaid (VOR, NDB)
Fix

Horizontal Profiles

Position Reports

Time Latitude Longitude Heading Altitude Ground
Speed
11-May-18 16:53 37.612257 -122.384123 30 20ft 0kts
11-May-18 16:54 37.612257 -122.384123 30 20ft 0kts
11-May-18 16:55 37.612257 -122.384123 30 20ft 0kts
11-May-18 16:56 37.612257 -122.384123 30 20ft 0kts
11-May-18 16:57 37.612257 -122.384123 30 20ft 0kts
11-May-18 16:58 37.612257 -122.384123 30 20ft 0kts
11-May-18 16:59 37.612248 -122.384130 30 20ft 1kts
11-May-18 17:00 37.611758 -122.384555 51 20ft 2kts
11-May-18 17:01 37.611593 -122.385008 78 20ft 0kts
11-May-18 17:02 37.611593 -122.385008 78 20ft 0kts
11-May-18 17:03 37.611426 -122.384100 116 20ft 6kts
11-May-18 17:04 37.611797 -122.381911 27 20ft 16kts
11-May-18 17:05 37.617130 -122.378689 11 20ft 24kts
11-May-18 17:06 37.617931 -122.377495 108 20ft 1kts
11-May-18 17:07 37.615709 -122.371600 116 20ft 28kts
11-May-18 17:08 37.611911 -122.363668 119 20ft 33kts
11-May-18 17:09 37.610534 -122.359570 65 20ft 9kts
11-May-18 17:10 37.611032 -122.358989 25 20ft 0kts
11-May-18 17:11 37.612750 -122.360811 296 20ft 41kts
11-May-18 17:12 37.632459 -122.405417 295 1300ft 198kts
11-May-18 17:13 37.659973 -122.469559 299 4146ft 222kts
11-May-18 17:14 37.636382 -122.533740 182 6605ft 293kts
11-May-18 17:15 37.557084 -122.501777 161 9658ft 308kts
11-May-18 17:16 37.474211 -122.457412 133 11657ft 350kts
11-May-18 17:17 37.402007 -122.368359 133 13909ft 377kts
11-May-18 17:18 37.324291 -122.274428 133 16243ft 398kts
11-May-18 17:19 37.242799 -122.176365 133 18351ft 418kts
11-May-18 17:20 37.157414 -122.073955 134 20384ft 435kts
11-May-18 17:21 37.068650 -121.967850 135 22328ft 449kts
11-May-18 17:22 36.977444 -121.859220 137 24331ft 457kts
11-May-18 17:23 36.886946 -121.751886 137 25984ft 468kts
11-May-18 17:24 36.791790 -121.639717 137 27532ft 478kts
11-May-18 17:25 36.750707 -121.591318 137 28162ft 482kts
11-May-18 17:26 36.670987 -121.497609 137 29782ft 477kts
11-May-18 17:27 36.574628 -121.384732 138 30899ft 477kts
11-May-18 17:28 36.479379 -121.273287 138 30856ft 472kts
11-May-18 17:29 36.383322 -121.162353 141 30825ft 483kts
11-May-18 17:30 36.277247 -121.053408 143 30844ft 503kts
11-May-18 17:31 36.169423 -120.942958 143 30831ft 505kts
11-May-18 17:32 36.061832 -120.833157 143 30829ft 504kts
11-May-18 17:33 35.953671 -120.723183 143 30830ft 504kts
11-May-18 17:34 35.852117 -120.620465 143 30823ft 504kts
11-May-18 17:35 35.744119 -120.511501 143 30829ft 504kts
11-May-18 17:36 35.635415 -120.403067 143 30831ft 504kts
11-May-18 17:37 35.547731 -120.313394 142 30820ft 504kts
11-May-18 17:38 35.441503 -120.202267 142 30856ft 505kts
11-May-18 17:39 35.334788 -120.091290 143 30903ft 504kts
11-May-18 17:40 35.227954 -119.980590 143 30902ft 505kts
11-May-18 17:41 35.121731 -119.870877 142 28686ft 500kts
11-May-18 17:42 35.018756 -119.765500 142 25657ft 464kts
11-May-18 17:43 34.924560 -119.668888 141 23210ft 426kts
11-May-18 17:44 34.845101 -119.574867 129 21457ft 417kts
11-May-18 17:45 34.775236 -119.470166 129 20840ft 417kts
11-May-18 17:46 34.703974 -119.361348 129 18361ft 400kts
11-May-18 17:47 34.641028 -119.264038 124 15394ft 391kts
11-May-18 17:48 34.589675 -119.160022 121 12738ft 372kts
11-May-18 17:49 34.535811 -119.061024 143 11046ft 343kts
11-May-18 17:50 34.467459 -118.998577 145 10783ft 309kts
11-May-18 17:51 34.402855 -118.936721 143 9370ft 293kts
11-May-18 17:52 34.341734 -118.872954 140 8284ft 289kts
11-May-18 17:53 34.284642 -118.810330 140 7202ft 284kts
11-May-18 17:54 34.245748 -118.732882 116 6363ft 269kts
11-May-18 17:55 34.218991 -118.659937 117 5196ft 259kts
11-May-18 17:56 34.199722 -118.580406 93 4023ft 250kts
11-May-18 17:57 34.199469 -118.502985 93 2990ft 227kts
11-May-18 17:58 34.198714 -118.435253 93 1897ft 178kts
11-May-18 17:59 34.198115 -118.383454 94 1062ft 144kts
11-May-18 18:00 34.197612 -118.350796 125 783ft 11kts
11-May-18 18:01 34.196848 -118.351982 177 783ft 0kts
11-May-18 18:02 34.196847 -118.351982 177 783ft 0kts

Navigation Log

Ident Type
Flight plan parsing failed, navigation log unavailable